sensor_id;sensor_type;location;lat;lon;timestamp;P1;durP1;ratioP1;P2;durP2;ratioP2
20000;SDS011;10161;41.188;-8.642;2023-09-19T00:00:04;4.20;;;2.87;;
20000;SDS011;10161;41.188;-8.642;2023-09-19T00:02:39;3.57;;;2.50;;
20000;SDS011;10161;41.188;-8.642;2023-09-19T00:05:07;5.20;;;3.43;;
20000;SDS011;10161;41.188;-8.642;2023-09-19T00:07:36;3.00;;;2.50;;
20000;SDS011;10161;41.188;-8.642;2023-09-19T00:10:04;5.43;;;2.90;;
20000;SDS011;10161;41.188;-8.642;2023-09-19T00:12:36;4.40;;;3.20;;
20000;SDS011;10161;41.188;-8.642;2023-09-19T00:15:04;4.20;;;2.90;;
20000;SDS011;10161;41.188;-8.642;2023-09-19T00:17:31;3.57;;;2.80;;
20000;SDS011;10161;41.188;-8.642;2023-09-19T00:20:02;4.23;;;2.83;;
20000;SDS011;10161;41.188;-8.642;2023-09-19T00:22:33;3.93;;;3.37;;
20000;SDS011;10161;41.188;-8.642;2023-09-19T00:25:01;3.90;;;3.00;;
20000;SDS011;10161;41.188;-8.642;2023-09-19T00:27:32;5.90;;;2.80;;
20000;SDS011;10161;41.188;-8.642;2023-09-19T00:30:00;3.73;;;2.80;;
20000;SDS011;10161;41.188;-8.642;2023-09-19T00:32:29;4.00;;;2.60;;
20000;SDS011;10161;41.188;-8.642;2023-09-19T00:34:57;4.20;;;3.20;;
20000;SDS011;10161;41.188;-8.642;2023-09-19T00:37:26;4.40;;;3.17;;
20000;SDS011;10161;41.188;-8.642;2023-09-19T00:39:54;3.80;;;3.00;;
20000;SDS011;10161;41.188;-8.642;2023-09-19T00:42:22;4.33;;;3.07;;
20000;SDS011;10161;41.188;-8.642;2023-09-19T00:44:51;3.07;;;2.50;;
20000;SDS011;10161;41.188;-8.642;2023-09-19T00:47:19;4.77;;;3.27;;
20000;SDS011;10161;41.188;-8.642;2023-09-19T00:49:47;6.07;;;3.37;;
20000;SDS011;10161;41.188;-8.642;2023-09-19T00:52:18;5.00;;;3.30;;
20000;SDS011;10161;41.188;-8.642;2023-09-19T00:54:47;3.50;;;2.80;;
20000;SDS011;10161;41.188;-8.642;2023-09-19T00:57:14;3.63;;;2.63;;
20000;SDS011;10161;41.188;-8.642;2023-09-19T00:59:42;4.43;;;3.00;;
20000;SDS011;10161;41.188;-8.642;2023-09-19T01:02:10;5.17;;;3.10;;
20000;SDS011;10161;41.188;-8.642;2023-09-19T01:04:39;4.83;;;2.60;;
20000;SDS011;10161;41.188;-8.642;2023-09-19T01:07:07;3.77;;;2.80;;
20000;SDS011;10161;41.188;-8.642;2023-09-19T01:09:35;3.73;;;2.70;;
20000;SDS011;10161;41.188;-8.642;2023-09-19T01:12:05;3.80;;;2.87;;
20000;SDS011;10161;41.188;-8.642;2023-09-19T01:14:35;2.53;;;2.30;;
20000;SDS011;10161;41.188;-8.642;2023-09-19T01:17:08;2.50;;;2.30;;
20000;SDS011;10161;41.188;-8.642;2023-09-19T01:19:49;4.70;;;2.43;;
20000;SDS011;10161;41.188;-8.642;2023-09-19T01:22:37;3.03;;;2.23;;
20000;SDS011;10161;41.188;-8.642;2023-09-19T01:25:31;3.43;;;2.30;;
20000;SDS011;10161;41.188;-8.642;2023-09-19T01:28:10;2.97;;;2.57;;
20000;SDS011;10161;41.188;-8.642;2023-09-19T01:30:51;3.40;;;2.70;;
20000;SDS011;10161;41.188;-8.642;2023-09-19T01:33:20;3.13;;;2.60;;
20000;SDS011;10161;41.188;-8.642;2023-09-19T01:35:48;4.83;;;3.30;;
20000;SDS011;10161;41.188;-8.642;2023-09-19T01:38:15;3.67;;;2.83;;
20000;SDS011;10161;41.188;-8.642;2023-09-19T01:40:46;4.30;;;2.93;;
20000;SDS011;10161;41.188;-8.642;2023-09-19T01:43:20;3.73;;;2.50;;
20000;SDS011;10161;41.188;-8.642;2023-09-19T01:45:53;3.13;;;2.60;;
20000;SDS011;10161;41.188;-8.642;2023-09-19T01:48:29;2.87;;;2.50;;
20000;SDS011;10161;41.188;-8.642;2023-09-19T01:51:05;4.30;;;3.00;;
20000;SDS011;10161;41.188;-8.642;2023-09-19T01:53:33;3.60;;;2.73;;
20000;SDS011;10161;41.188;-8.642;2023-09-19T01:56:04;3.50;;;2.60;;
20000;SDS011;10161;41.188;-8.642;2023-09-19T01:58:33;3.13;;;2.70;;
20000;SDS011;10161;41.188;-8.642;2023-09-19T02:01:03;4.00;;;2.90;;
20000;SDS011;10161;41.188;-8.642;2023-09-19T02:03:32;4.23;;;2.80;;
20000;SDS011;10161;41.188;-8.642;2023-09-19T02:06:00;3.80;;;2.70;;
20000;SDS011;10161;41.188;-8.642;2023-09-19T02:08:30;4.50;;;2.90;;
20000;SDS011;10161;41.188;-8.642;2023-09-19T02:10:59;4.10;;;3.20;;
20000;SDS011;10161;41.188;-8.642;2023-09-19T02:13:27;4.53;;;2.77;;
20000;SDS011;10161;41.188;-8.642;2023-09-19T02:15:56;3.27;;;2.20;;
20000;SDS011;10161;41.188;-8.642;2023-09-19T02:18:25;3.00;;;2.70;;
20000;SDS011;10161;41.188;-8.642;2023-09-19T02:20:53;3.03;;;2.50;;
20000;SDS011;10161;41.188;-8.642;2023-09-19T02:23:22;3.33;;;2.77;;
20000;SDS011;10161;41.188;-8.642;2023-09-19T02:25:54;4.47;;;3.17;;
20000;SDS011;10161;41.188;-8.642;2023-09-19T02:28:22;3.40;;;3.10;;
20000;SDS011;10161;41.188;-8.642;2023-09-19T02:30:50;3.73;;;2.63;;
20000;SDS011;10161;41.188;-8.642;2023-09-19T02:33:18;2.40;;;2.20;;
20000;SDS011;10161;41.188;-8.642;2023-09-19T02:35:46;3.20;;;2.53;;
20000;SDS011;10161;41.188;-8.642;2023-09-19T02:38:15;2.87;;;2.50;;
20000;SDS011;10161;41.188;-8.642;2023-09-19T02:40:47;4.90;;;2.67;;
20000;SDS011;10161;41.188;-8.642;2023-09-19T02:43:15;3.17;;;2.33;;
20000;SDS011;10161;41.188;-8.642;2023-09-19T02:45:42;3.50;;;2.40;;
20000;SDS011;10161;41.188;-8.642;2023-09-19T02:48:09;3.00;;;2.70;;
20000;SDS011;10161;41.188;-8.642;2023-09-19T02:50:36;3.33;;;2.70;;
20000;SDS011;10161;41.188;-8.642;2023-09-19T02:53:07;3.83;;;2.60;;
20000;SDS011;10161;41.188;-8.642;2023-09-19T02:55:37;3.40;;;2.97;;
20000;SDS011;10161;41.188;-8.642;2023-09-19T02:58:06;4.00;;;2.93;;
20000;SDS011;10161;41.188;-8.642;2023-09-19T03:00:36;3.80;;;2.80;;
20000;SDS011;10161;41.188;-8.642;2023-09-19T03:03:03;3.43;;;2.90;;
20000;SDS011;10161;41.188;-8.642;2023-09-19T03:05:32;4.50;;;3.10;;
20000;SDS011;10161;41.188;-8.642;2023-09-19T03:08:00;3.30;;;3.00;;
20000;SDS011;10161;41.188;-8.642;2023-09-19T03:10:30;4.00;;;2.90;;
20000;SDS011;10161;41.188;-8.642;2023-09-19T03:12:58;3.90;;;3.17;;
20000;SDS011;10161;41.188;-8.642;2023-09-19T03:15:25;4.57;;;2.87;;
20000;SDS011;10161;41.188;-8.642;2023-09-19T03:17:52;3.57;;;2.80;;
20000;SDS011;10161;41.188;-8.642;2023-09-19T03:20:19;4.60;;;3.17;;
20000;SDS011;10161;41.188;-8.642;2023-09-19T03:22:47;3.03;;;2.57;;
20000;SDS011;10161;41.188;-8.642;2023-09-19T03:25:14;5.40;;;3.87;;
20000;SDS011;10161;41.188;-8.642;2023-09-19T03:27:44;4.17;;;3.30;;
20000;SDS011;10161;41.188;-8.642;2023-09-19T03:30:11;4.43;;;3.17;;
20000;SDS011;10161;41.188;-8.642;2023-09-19T03:32:43;4.00;;;3.00;;
20000;SDS011;10161;41.188;-8.642;2023-09-19T03:35:11;4.80;;;2.90;;
20000;SDS011;10161;41.188;-8.642;2023-09-19T03:37:39;3.63;;;2.47;;
20000;SDS011;10161;41.188;-8.642;2023-09-19T03:40:07;4.90;;;3.20;;
20000;SDS011;10161;41.188;-8.642;2023-09-19T03:42:37;4.60;;;3.50;;
20000;SDS011;10161;41.188;-8.642;2023-09-19T03:45:08;4.87;;;3.20;;
20000;SDS011;10161;41.188;-8.642;2023-09-19T03:47:37;6.50;;;3.17;;
20000;SDS011;10161;41.188;-8.642;2023-09-19T03:50:04;5.00;;;3.67;;
20000;SDS011;10161;41.188;-8.642;2023-09-19T03:52:32;3.60;;;2.87;;
20000;SDS011;10161;41.188;-8.642;2023-09-19T03:54:59;4.50;;;3.13;;
20000;SDS011;10161;41.188;-8.642;2023-09-19T03:57:27;3.07;;;2.50;;
20000;SDS011;10161;41.188;-8.642;2023-09-19T03:59:54;4.23;;;3.20;;
20000;SDS011;10161;41.188;-8.642;2023-09-19T04:02:23;4.00;;;3.27;;
20000;SDS011;10161;41.188;-8.642;2023-09-19T04:04:51;5.23;;;3.43;;
20000;SDS011;10161;41.188;-8.642;2023-09-19T04:07:18;3.73;;;3.30;;
20000;SDS011;10161;41.188;-8.642;2023-09-19T04:09:47;4.13;;;3.20;;
20000;SDS011;10161;41.188;-8.642;2023-09-19T04:12:14;3.70;;;3.27;;
20000;SDS011;10161;41.188;-8.642;2023-09-19T04:14:43;5.73;;;2.90;;
20000;SDS011;10161;41.188;-8.642;2023-09-19T04:17:10;3.83;;;2.93;;
20000;SDS011;10161;41.188;-8.642;2023-09-19T04:19:38;6.00;;;3.73;;
20000;SDS011;10161;41.188;-8.642;2023-09-19T04:22:06;4.43;;;3.10;;
20000;SDS011;10161;41.188;-8.642;2023-09-19T04:24:35;3.77;;;3.17;;
20000;SDS011;10161;41.188;-8.642;2023-09-19T04:27:03;3.37;;;2.73;;
20000;SDS011;10161;41.188;-8.642;2023-09-19T04:29:31;3.67;;;3.07;;
20000;SDS011;10161;41.188;-8.642;2023-09-19T04:31:58;3.83;;;3.03;;
20000;SDS011;10161;41.188;-8.642;2023-09-19T04:34:25;4.23;;;3.53;;
20000;SDS011;10161;41.188;-8.642;2023-09-19T04:36:54;4.63;;;3.57;;
20000;SDS011;10161;41.188;-8.642;2023-09-19T04:39:23;4.10;;;3.20;;
20000;SDS011;10161;41.188;-8.642;2023-09-19T04:41:51;3.90;;;3.10;;
20000;SDS011;10161;41.188;-8.642;2023-09-19T04:44:18;3.87;;;3.40;;
20000;SDS011;10161;41.188;-8.642;2023-09-19T04:46:45;4.10;;;3.10;;
20000;SDS011;10161;41.188;-8.642;2023-09-19T04:49:12;3.50;;;2.73;;
20000;SDS011;10161;41.188;-8.642;2023-09-19T04:51:39;4.20;;;3.27;;
20000;SDS011;10161;41.188;-8.642;2023-09-19T04:54:09;3.30;;;2.90;;
20000;SDS011;10161;41.188;-8.642;2023-09-19T04:56:36;4.77;;;3.50;;
20000;SDS011;10161;41.188;-8.642;2023-09-19T04:59:05;3.67;;;3.23;;
20000;SDS011;10161;41.188;-8.642;2023-09-19T05:01:32;3.77;;;3.20;;
20000;SDS011;10161;41.188;-8.642;2023-09-19T05:03:59;3.90;;;3.47;;
20000;SDS011;10161;41.188;-8.642;2023-09-19T05:06:26;3.70;;;2.77;;
20000;SDS011;10161;41.188;-8.642;2023-09-19T05:08:53;3.40;;;2.80;;
20000;SDS011;10161;41.188;-8.642;2023-09-19T05:11:21;3.43;;;3.13;;
20000;SDS011;10161;41.188;-8.642;2023-09-19T05:13:49;4.77;;;3.63;;
20000;SDS011;10161;41.188;-8.642;2023-09-19T05:16:19;4.93;;;3.43;;
20000;SDS011;10161;41.188;-8.642;2023-09-19T05:18:46;4.70;;;3.30;;
20000;SDS011;10161;41.188;-8.642;2023-09-19T05:21:14;5.80;;;3.23;;
20000;SDS011;10161;41.188;-8.642;2023-09-19T05:23:42;5.00;;;3.33;;
20000;SDS011;10161;41.188;-8.642;2023-09-19T05:26:10;4.33;;;3.23;;
20000;SDS011;10161;41.188;-8.642;2023-09-19T05:28:39;6.03;;;3.37;;
20000;SDS011;10161;41.188;-8.642;2023-09-19T05:31:06;5.90;;;3.20;;
20000;SDS011;10161;41.188;-8.642;2023-09-19T05:33:33;4.33;;;3.50;;
20000;SDS011;10161;41.188;-8.642;2023-09-19T05:36:02;4.93;;;3.90;;
20000;SDS011;10161;41.188;-8.642;2023-09-19T05:38:29;4.20;;;3.43;;
20000;SDS011;10161;41.188;-8.642;2023-09-19T05:40:57;3.60;;;3.10;;
20000;SDS011;10161;41.188;-8.642;2023-09-19T05:43:26;5.17;;;3.90;;
20000;SDS011;10161;41.188;-8.642;2023-09-19T05:45:54;3.93;;;3.20;;
20000;SDS011;10161;41.188;-8.642;2023-09-19T05:48:21;4.23;;;3.60;;
20000;SDS011;10161;41.188;-8.642;2023-09-19T05:50:48;4.90;;;3.60;;
20000;SDS011;10161;41.188;-8.642;2023-09-19T05:53:15;4.47;;;4.07;;
20000;SDS011;10161;41.188;-8.642;2023-09-19T05:55:43;5.13;;;3.60;;
20000;SDS011;10161;41.188;-8.642;2023-09-19T05:58:10;5.20;;;3.70;;
20000;SDS011;10161;41.188;-8.642;2023-09-19T06:00:39;3.87;;;3.50;;
20000;SDS011;10161;41.188;-8.642;2023-09-19T06:03:08;4.60;;;3.70;;
20000;SDS011;10161;41.188;-8.642;2023-09-19T06:05:35;4.00;;;3.53;;
20000;SDS011;10161;41.188;-8.642;2023-09-19T06:08:08;5.00;;;3.50;;
20000;SDS011;10161;41.188;-8.642;2023-09-19T06:10:35;3.80;;;3.50;;
20000;SDS011;10161;41.188;-8.642;2023-09-19T06:13:02;4.73;;;4.17;;
20000;SDS011;10161;41.188;-8.642;2023-09-19T06:15:31;5.03;;;3.40;;
20000;SDS011;10161;41.188;-8.642;2023-09-19T06:18:01;7.43;;;3.90;;
20000;SDS011;10161;41.188;-8.642;2023-09-19T06:20:32;3.97;;;3.57;;
20000;SDS011;10161;41.188;-8.642;2023-09-19T06:22:59;4.10;;;3.50;;
20000;SDS011;10161;41.188;-8.642;2023-09-19T06:25:28;3.70;;;3.10;;
20000;SDS011;10161;41.188;-8.642;2023-09-19T06:27:55;4.50;;;3.40;;
20000;SDS011;10161;41.188;-8.642;2023-09-19T06:30:24;5.27;;;3.63;;
20000;SDS011;10161;41.188;-8.642;2023-09-19T06:32:55;3.90;;;3.50;;
20000;SDS011;10161;41.188;-8.642;2023-09-19T06:35:22;5.87;;;3.33;;
20000;SDS011;10161;41.188;-8.642;2023-09-19T06:37:52;3.87;;;3.50;;
20000;SDS011;10161;41.188;-8.642;2023-09-19T06:40:19;4.43;;;4.00;;
20000;SDS011;10161;41.188;-8.642;2023-09-19T06:42:47;4.10;;;3.67;;
20000;SDS011;10161;41.188;-8.642;2023-09-19T06:45:18;5.60;;;3.73;;
20000;SDS011;10161;41.188;-8.642;2023-09-19T06:47:45;4.37;;;3.60;;
20000;SDS011;10161;41.188;-8.642;2023-09-19T06:50:16;5.17;;;3.50;;
20000;SDS011;10161;41.188;-8.642;2023-09-19T06:52:45;4.07;;;3.43;;
20000;SDS011;10161;41.188;-8.642;2023-09-19T06:55:18;3.50;;;3.13;;
20000;SDS011;10161;41.188;-8.642;2023-09-19T06:57:45;4.27;;;3.57;;
20000;SDS011;10161;41.188;-8.642;2023-09-19T07:00:13;5.40;;;3.47;;
20000;SDS011;10161;41.188;-8.642;2023-09-19T07:02:43;4.03;;;3.63;;
20000;SDS011;10161;41.188;-8.642;2023-09-19T07:05:10;4.43;;;3.90;;
20000;SDS011;10161;41.188;-8.642;2023-09-19T07:07:37;4.20;;;3.53;;
20000;SDS011;10161;41.188;-8.642;2023-09-19T07:10:05;5.17;;;4.30;;
20000;SDS011;10161;41.188;-8.642;2023-09-19T07:12:35;5.50;;;4.20;;
20000;SDS011;10161;41.188;-8.642;2023-09-19T07:15:04;5.90;;;4.40;;
20000;SDS011;10161;41.188;-8.642;2023-09-19T07:17:32;4.20;;;3.60;;
20000;SDS011;10161;41.188;-8.642;2023-09-19T07:19:59;5.00;;;4.03;;
20000;SDS011;10161;41.188;-8.642;2023-09-19T07:22:26;4.97;;;4.23;;
20000;SDS011;10161;41.188;-8.642;2023-09-19T07:24:54;5.03;;;4.00;;
20000;SDS011;10161;41.188;-8.642;2023-09-19T07:27:21;4.20;;;3.80;;
20000;SDS011;10161;41.188;-8.642;2023-09-19T07:29:52;5.43;;;4.07;;
20000;SDS011;10161;41.188;-8.642;2023-09-19T07:32:19;4.03;;;3.60;;
20000;SDS011;10161;41.188;-8.642;2023-09-19T07:34:46;4.50;;;4.10;;
20000;SDS011;10161;41.188;-8.642;2023-09-19T07:37:12;4.90;;;4.30;;
20000;SDS011;10161;41.188;-8.642;2023-09-19T07:39:41;4.57;;;3.60;;
20000;SDS011;10161;41.188;-8.642;2023-09-19T07:42:11;4.90;;;4.40;;
20000;SDS011;10161;41.188;-8.642;2023-09-19T07:44:42;4.20;;;3.80;;
20000;SDS011;10161;41.188;-8.642;2023-09-19T07:47:13;4.30;;;3.90;;
20000;SDS011;10161;41.188;-8.642;2023-09-19T07:49:41;5.20;;;3.70;;
20000;SDS011;10161;41.188;-8.642;2023-09-19T07:52:08;5.87;;;4.17;;
20000;SDS011;10161;41.188;-8.642;2023-09-19T07:54:35;3.90;;;3.60;;
20000;SDS011;10161;41.188;-8.642;2023-09-19T07:57:04;4.03;;;3.63;;
20000;SDS011;10161;41.188;-8.642;2023-09-19T07:59:31;4.40;;;4.00;;
20000;SDS011;10161;41.188;-8.642;2023-09-19T08:01:58;4.57;;;3.77;;
20000;SDS011;10161;41.188;-8.642;2023-09-19T08:04:28;4.27;;;3.87;;
20000;SDS011;10161;41.188;-8.642;2023-09-19T08:06:58;3.80;;;3.50;;
20000;SDS011;10161;41.188;-8.642;2023-09-19T08:09:27;5.00;;;4.10;;
20000;SDS011;10161;41.188;-8.642;2023-09-19T08:11:59;4.07;;;3.67;;
20000;SDS011;10161;41.188;-8.642;2023-09-19T08:14:30;4.50;;;3.77;;
20000;SDS011;10161;41.188;-8.642;2023-09-19T08:16:57;6.77;;;4.47;;
20000;SDS011;10161;41.188;-8.642;2023-09-19T08:19:25;4.73;;;3.63;;
20000;SDS011;10161;41.188;-8.642;2023-09-19T08:21:55;4.90;;;4.10;;
20000;SDS011;10161;41.188;-8.642;2023-09-19T08:24:23;4.70;;;3.80;;
20000;SDS011;10161;41.188;-8.642;2023-09-19T08:26:52;5.53;;;4.40;;
20000;SDS011;10161;41.188;-8.642;2023-09-19T08:29:22;4.43;;;4.00;;
20000;SDS011;10161;41.188;-8.642;2023-09-19T08:31:54;4.40;;;3.83;;
20000;SDS011;10161;41.188;-8.642;2023-09-19T08:34:23;4.10;;;3.70;;
20000;SDS011;10161;41.188;-8.642;2023-09-19T08:36:51;3.97;;;3.60;;
20000;SDS011;10161;41.188;-8.642;2023-09-19T08:39:23;4.30;;;3.73;;
20000;SDS011;10161;41.188;-8.642;2023-09-19T08:41:56;4.13;;;3.73;;
20000;SDS011;10161;41.188;-8.642;2023-09-19T08:44:25;4.20;;;3.80;;
20000;SDS011;10161;41.188;-8.642;2023-09-19T08:46:53;3.77;;;3.30;;
20000;SDS011;10161;41.188;-8.642;2023-09-19T08:49:24;5.03;;;3.90;;
20000;SDS011;10161;41.188;-8.642;2023-09-19T08:51:59;4.60;;;3.70;;
20000;SDS011;10161;41.188;-8.642;2023-09-19T08:54:35;4.10;;;3.60;;
20000;SDS011;10161;41.188;-8.642;2023-09-19T08:57:05;4.40;;;3.83;;
20000;SDS011;10161;41.188;-8.642;2023-09-19T08:59:36;4.43;;;4.03;;
20000;SDS011;10161;41.188;-8.642;2023-09-19T09:02:08;4.70;;;3.70;;
20000;SDS011;10161;41.188;-8.642;2023-09-19T09:04:38;5.73;;;3.60;;
20000;SDS011;10161;41.188;-8.642;2023-09-19T09:07:06;4.20;;;3.80;;
20000;SDS011;10161;41.188;-8.642;2023-09-19T09:09:38;3.93;;;3.53;;
20000;SDS011;10161;41.188;-8.642;2023-09-19T09:12:08;4.33;;;3.90;;
20000;SDS011;10161;41.188;-8.642;2023-09-19T09:14:37;4.87;;;3.83;;
20000;SDS011;10161;41.188;-8.642;2023-09-19T09:17:04;3.80;;;3.50;;
20000;SDS011;10161;41.188;-8.642;2023-09-19T09:19:32;3.90;;;3.53;;
20000;SDS011;10161;41.188;-8.642;2023-09-19T09:22:06;4.03;;;3.63;;
20000;SDS011;10161;41.188;-8.642;2023-09-19T09:24:34;6.63;;;3.80;;
20000;SDS011;10161;41.188;-8.642;2023-09-19T09:27:06;4.47;;;3.37;;
20000;SDS011;10161;41.188;-8.642;2023-09-19T09:29:43;4.53;;;3.40;;
20000;SDS011;10161;41.188;-8.642;2023-09-19T09:32:19;4.67;;;3.80;;
20000;SDS011;10161;41.188;-8.642;2023-09-19T09:34:48;3.73;;;3.40;;
20000;SDS011;10161;41.188;-8.642;2023-09-19T09:37:16;3.93;;;3.50;;
20000;SDS011;10161;41.188;-8.642;2023-09-19T09:39:51;5.00;;;3.73;;
20000;SDS011;10161;41.188;-8.642;2023-09-19T09:42:32;3.87;;;3.40;;
20000;SDS011;10161;41.188;-8.642;2023-09-19T09:45:14;4.17;;;3.73;;
20000;SDS011;10161;41.188;-8.642;2023-09-19T09:47:45;4.80;;;3.47;;
20000;SDS011;10161;41.188;-8.642;2023-09-19T09:50:25;3.47;;;3.17;;
20000;SDS011;10161;41.188;-8.642;2023-09-19T09:52:55;5.20;;;3.80;;
20000;SDS011;10161;41.188;-8.642;2023-09-19T09:55:36;4.43;;;3.63;;
20000;SDS011;10161;41.188;-8.642;2023-09-19T09:58:25;4.37;;;3.50;;
20000;SDS011;10161;41.188;-8.642;2023-09-19T10:00:54;4.50;;;3.67;;
20000;SDS011;10161;41.188;-8.642;2023-09-19T10:03:33;3.37;;;3.07;;
20000;SDS011;10161;41.188;-8.642;2023-09-19T10:06:07;5.00;;;3.30;;
20000;SDS011;10161;41.188;-8.642;2023-09-19T10:09:00;3.43;;;3.03;;
20000;SDS011;10161;41.188;-8.642;2023-09-19T10:11:44;3.63;;;3.07;;
20000;SDS011;10161;41.188;-8.642;2023-09-19T10:14:15;4.10;;;3.23;;
20000;SDS011;10161;41.188;-8.642;2023-09-19T10:16:45;4.67;;;3.40;;
20000;SDS011;10161;41.188;-8.642;2023-09-19T10:19:15;5.83;;;3.33;;
20000;SDS011;10161;41.188;-8.642;2023-09-19T10:21:44;4.07;;;3.20;;
20000;SDS011;10161;41.188;-8.642;2023-09-19T10:24:13;3.70;;;3.40;;
20000;SDS011;10161;41.188;-8.642;2023-09-19T10:26:41;4.30;;;3.50;;
20000;SDS011;10161;41.188;-8.642;2023-09-19T10:29:08;3.90;;;2.83;;
20000;SDS011;10161;41.188;-8.642;2023-09-19T10:31:37;4.47;;;3.30;;
20000;SDS011;10161;41.188;-8.642;2023-09-19T10:34:06;3.97;;;3.10;;
20000;SDS011;10161;41.188;-8.642;2023-09-19T10:36:35;4.00;;;3.27;;
20000;SDS011;10161;41.188;-8.642;2023-09-19T10:39:08;3.40;;;2.97;;
20000;SDS011;10161;41.188;-8.642;2023-09-19T10:41:37;3.57;;;3.17;;
20000;SDS011;10161;41.188;-8.642;2023-09-19T10:44:07;5.73;;;3.07;;
20000;SDS011;10161;41.188;-8.642;2023-09-19T10:46:34;4.30;;;3.03;;
20000;SDS011;10161;41.188;-8.642;2023-09-19T10:49:03;3.50;;;2.90;;
20000;SDS011;10161;41.188;-8.642;2023-09-19T10:51:31;4.50;;;2.97;;
20000;SDS011;10161;41.188;-8.642;2023-09-19T10:54:05;4.93;;;3.27;;
20000;SDS011;10161;41.188;-8.642;2023-09-19T10:56:42;6.37;;;4.23;;
20000;SDS011;10161;41.188;-8.642;2023-09-19T10:59:13;7.70;;;4.90;;
20000;SDS011;10161;41.188;-8.642;2023-09-19T11:01:45;5.83;;;4.53;;
20000;SDS011;10161;41.188;-8.642;2023-09-19T11:04:24;5.40;;;4.27;;
20000;SDS011;10161;41.188;-8.642;2023-09-19T11:07:00;6.10;;;5.00;;
20000;SDS011;10161;41.188;-8.642;2023-09-19T11:09:45;7.70;;;4.80;;
20000;SDS011;10161;41.188;-8.642;2023-09-19T11:21:40;10.03;;;5.50;;
20000;SDS011;10161;41.188;-8.642;2023-09-19T11:24:27;8.43;;;5.00;;
20000;SDS011;10161;41.188;-8.642;2023-09-19T11:29:39;6.60;;;4.77;;
20000;SDS011;10161;41.188;-8.642;2023-09-19T11:32:08;9.10;;;4.57;;
20000;SDS011;10161;41.188;-8.642;2023-09-19T11:34:42;7.20;;;4.50;;
20000;SDS011;10161;41.188;-8.642;2023-09-19T11:40:37;7.10;;;4.50;;
20000;SDS011;10161;41.188;-8.642;2023-09-19T11:46:06;5.00;;;3.83;;
20000;SDS011;10161;41.188;-8.642;2023-09-19T11:48:33;5.00;;;3.83;;
20000;SDS011;10161;41.188;-8.642;2023-09-19T11:53:47;4.57;;;3.43;;
20000;SDS011;10161;41.188;-8.642;2023-09-19T11:56:20;5.90;;;3.80;;
20000;SDS011;10161;41.188;-8.642;2023-09-19T11:58:50;5.53;;;3.90;;
20000;SDS011;10161;41.188;-8.642;2023-09-19T12:01:23;3.97;;;3.20;;
20000;SDS011;10161;41.188;-8.642;2023-09-19T12:03:54;5.13;;;3.47;;
20000;SDS011;10161;41.188;-8.642;2023-09-19T12:06:23;6.40;;;3.50;;
20000;SDS011;10161;41.188;-8.642;2023-09-19T12:08:50;5.53;;;3.40;;
20000;SDS011;10161;41.188;-8.642;2023-09-19T12:11:20;5.53;;;3.63;;
20000;SDS011;10161;41.188;-8.642;2023-09-19T12:13:48;5.10;;;3.03;;
20000;SDS011;10161;41.188;-8.642;2023-09-19T12:16:16;4.03;;;3.50;;
20000;SDS011;10161;41.188;-8.642;2023-09-19T12:18:47;5.30;;;3.20;;
20000;SDS011;10161;41.188;-8.642;2023-09-19T12:21:25;4.57;;;3.60;;
20000;SDS011;10161;41.188;-8.642;2023-09-19T12:24:07;3.57;;;2.80;;
20000;SDS011;10161;41.188;-8.642;2023-09-19T12:26:43;4.10;;;2.80;;
20000;SDS011;10161;41.188;-8.642;2023-09-19T12:29:14;3.53;;;2.80;;
20000;SDS011;10161;41.188;-8.642;2023-09-19T12:31:48;4.20;;;2.67;;
20000;SDS011;10161;41.188;-8.642;2023-09-19T12:34:22;3.40;;;2.50;;
20000;SDS011;10161;41.188;-8.642;2023-09-19T12:37:05;3.27;;;2.17;;
20000;SDS011;10161;41.188;-8.642;2023-09-19T12:39:42;3.00;;;1.87;;
20000;SDS011;10161;41.188;-8.642;2023-09-19T12:42:16;3.20;;;1.90;;
20000;SDS011;10161;41.188;-8.642;2023-09-19T12:44:46;2.23;;;1.70;;
20000;SDS011;10161;41.188;-8.642;2023-09-19T12:47:14;2.13;;;1.93;;
20000;SDS011;10161;41.188;-8.642;2023-09-19T12:52:45;3.00;;;2.00;;
20000;SDS011;10161;41.188;-8.642;2023-09-19T12:55:23;2.27;;;1.90;;
20000;SDS011;10161;41.188;-8.642;2023-09-19T12:58:12;1.90;;;1.70;;
20000;SDS011;10161;41.188;-8.642;2023-09-19T13:00:40;2.93;;;1.57;;
20000;SDS011;10161;41.188;-8.642;2023-09-19T13:03:11;2.07;;;1.63;;
20000;SDS011;10161;41.188;-8.642;2023-09-19T13:05:50;1.90;;;1.60;;
20000;SDS011;10161;41.188;-8.642;2023-09-19T13:08:20;5.10;;;1.63;;
20000;SDS011;10161;41.188;-8.642;2023-09-19T13:11:01;1.80;;;1.60;;
20000;SDS011;10161;41.188;-8.642;2023-09-19T13:13:30;1.70;;;1.40;;
20000;SDS011;10161;41.188;-8.642;2023-09-19T13:15:57;3.53;;;1.60;;
20000;SDS011;10161;41.188;-8.642;2023-09-19T13:18:24;1.67;;;1.30;;
20000;SDS011;10161;41.188;-8.642;2023-09-19T13:21:05;2.20;;;1.67;;
20000;SDS011;10161;41.188;-8.642;2023-09-19T13:23:34;3.63;;;1.50;;
20000;SDS011;10161;41.188;-8.642;2023-09-19T13:26:03;2.17;;;1.60;;
20000;SDS011;10161;41.188;-8.642;2023-09-19T13:28:32;2.40;;;1.67;;
20000;SDS011;10161;41.188;-8.642;2023-09-19T13:31:00;3.00;;;1.70;;
20000;SDS011;10161;41.188;-8.642;2023-09-19T13:33:27;2.27;;;1.47;;
20000;SDS011;10161;41.188;-8.642;2023-09-19T13:35:54;2.20;;;1.57;;
20000;SDS011;10161;41.188;-8.642;2023-09-19T13:38:22;2.03;;;1.43;;
20000;SDS011;10161;41.188;-8.642;2023-09-19T13:40:50;2.70;;;1.50;;
20000;SDS011;10161;41.188;-8.642;2023-09-19T13:43:17;1.50;;;1.40;;
20000;SDS011;10161;41.188;-8.642;2023-09-19T13:45:48;1.73;;;1.40;;
20000;SDS011;10161;41.188;-8.642;2023-09-19T13:48:16;3.33;;;1.60;;
20000;SDS011;10161;41.188;-8.642;2023-09-19T13:50:47;1.43;;;1.30;;
20000;SDS011;10161;41.188;-8.642;2023-09-19T13:53:15;1.40;;;1.30;;
20000;SDS011;10161;41.188;-8.642;2023-09-19T13:55:43;2.17;;;1.47;;
20000;SDS011;10161;41.188;-8.642;2023-09-19T13:58:10;1.67;;;1.57;;
20000;SDS011;10161;41.188;-8.642;2023-09-19T14:00:37;3.43;;;1.60;;
20000;SDS011;10161;41.188;-8.642;2023-09-19T14:03:07;1.90;;;1.30;;
20000;SDS011;10161;41.188;-8.642;2023-09-19T14:05:35;1.80;;;1.27;;
20000;SDS011;10161;41.188;-8.642;2023-09-19T14:08:03;2.90;;;1.37;;
20000;SDS011;10161;41.188;-8.642;2023-09-19T14:10:30;2.80;;;1.57;;
20000;SDS011;10161;41.188;-8.642;2023-09-19T14:12:57;1.97;;;1.30;;
20000;SDS011;10161;41.188;-8.642;2023-09-19T14:15:26;1.87;;;1.37;;
20000;SDS011;10161;41.188;-8.642;2023-09-19T14:17:56;1.80;;;1.40;;
20000;SDS011;10161;41.188;-8.642;2023-09-19T14:20:27;2.43;;;1.27;;
20000;SDS011;10161;41.188;-8.642;2023-09-19T14:22:55;2.50;;;1.70;;
20000;SDS011;10161;41.188;-8.642;2023-09-19T14:25:23;1.53;;;1.43;;
20000;SDS011;10161;41.188;-8.642;2023-09-19T14:27:51;2.20;;;1.60;;
20000;SDS011;10161;41.188;-8.642;2023-09-19T14:30:18;1.97;;;1.30;;
20000;SDS011;10161;41.188;-8.642;2023-09-19T14:32:46;1.30;;;1.10;;
20000;SDS011;10161;41.188;-8.642;2023-09-19T14:35:13;2.57;;;1.47;;
20000;SDS011;10161;41.188;-8.642;2023-09-19T14:37:41;1.80;;;1.30;;
20000;SDS011;10161;41.188;-8.642;2023-09-19T14:40:09;2.00;;;1.30;;
20000;SDS011;10161;41.188;-8.642;2023-09-19T14:42:39;1.40;;;1.30;;
20000;SDS011;10161;41.188;-8.642;2023-09-19T14:45:08;1.70;;;1.27;;
20000;SDS011;10161;41.188;-8.642;2023-09-19T14:47:36;1.57;;;1.40;;
20000;SDS011;10161;41.188;-8.642;2023-09-19T14:50:04;1.50;;;1.40;;
20000;SDS011;10161;41.188;-8.642;2023-09-19T14:52:31;1.67;;;1.20;;
20000;SDS011;10161;41.188;-8.642;2023-09-19T14:55:02;1.57;;;1.33;;
20000;SDS011;10161;41.188;-8.642;2023-09-19T14:57:30;1.90;;;1.23;;
20000;SDS011;10161;41.188;-8.642;2023-09-19T14:59:57;2.47;;;1.17;;
20000;SDS011;10161;41.188;-8.642;2023-09-19T15:02:26;1.33;;;1.10;;
20000;SDS011;10161;41.188;-8.642;2023-09-19T15:04:53;2.17;;;1.43;;
20000;SDS011;10161;41.188;-8.642;2023-09-19T15:07:20;1.90;;;1.50;;
20000;SDS011;10161;41.188;-8.642;2023-09-19T15:09:47;1.73;;;1.63;;
20000;SDS011;10161;41.188;-8.642;2023-09-19T15:12:18;1.87;;;1.23;;